Time;durP1;ratioP1;P1;durP2;ratioP2;P2;SDS_P1;SDS_P2;PMS_P1;PMS_P2;Temp;Humidity;BMP_temperature;BMP_pressure;BME280_temperature;BME280_humidity;BME280_pressure;Samples;Min_cycle;Max_cycle;Signal;HPM_P1;HPM_P2
2022/11/18 00:00:24;;;;;;;9.17;8.07;;;;;;;;;;5071441;28;20191;-44
2022/11/18 00:02:50;;;;;;;9.53;8.27;;;;;;;;;;5070413;28;20474;-43
2022/11/18 00:05:17;;;;;;;8.83;7.37;;;;;;;;;;5070727;28;20501;-44
2022/11/18 00:07:43;;;;;;;8.43;7.37;;;;;;;;;;5070540;28;20231;-44
2022/11/18 00:10:09;;;;;;;9.30;8.40;;;;;;;;;;5071192;28;20431;-44
2022/11/18 00:15:20;;;;;;;9.07;8.07;;;;;;;;;;5070952;28;20417;-44
2022/11/18 00:17:46;;;;;;;8.87;7.93;;;;;;;;;;5069677;28;20871;-44
2022/11/18 00:20:12;;;;;;;10.47;8.67;;;;;;;;;;5070666;28;20516;-43
2022/11/18 00:22:39;;;;;;;9.40;8.43;;;;;;;;;;5069902;28;20284;-43
2022/11/18 00:25:05;;;;;;;10.07;9.07;;;;;;;;;;5070927;28;20477;-44
2022/11/18 00:27:31;;;;;;;12.30;9.00;;;;;;;;;;5071089;28;20505;-44
2022/11/18 00:29:57;;;;;;;9.80;8.47;;;;;;;;;;5070642;28;20938;-44
2022/11/18 00:32:23;;;;;;;9.07;7.93;;;;;;;;;;5070530;28;20437;-44
2022/11/18 00:34:49;;;;;;;9.67;8.47;;;;;;;;;;5070770;28;20512;-44
2022/11/18 00:37:15;;;;;;;9.23;8.13;;;;;;;;;;5070939;28;20807;-44
2022/11/18 00:39:43;;;;;;;8.87;7.70;;;;;;;;;;5070836;28;20868;-44
2022/11/18 00:44:53;;;;;;;10.47;7.63;;;;;;;;;;5074078;28;21050;-44
2022/11/18 00:47:20;;;;;;;8.07;7.27;;;;;;;;;;5074693;28;20438;-44
2022/11/18 00:49:46;;;;;;;9.23;8.27;;;;;;;;;;5074398;28;20564;-44
2022/11/18 00:52:12;;;;;;;9.77;8.13;;;;;;;;;;5074610;28;20430;-44
2022/11/18 00:54:38;;;;;;;9.37;7.87;;;;;;;;;;5074363;28;20543;-44
2022/11/18 00:57:05;;;;;;;9.97;8.97;;;;;;;;;;5074063;28;20457;-44
2022/11/18 00:59:31;;;;;;;9.80;8.30;;;;;;;;;;5074198;28;20507;-44
2022/11/18 01:01:57;;;;;;;9.73;8.73;;;;;;;;;;5073832;28;20485;-44
2022/11/18 01:04:23;;;;;;;10.23;8.23;;;;;;;;;;5074213;28;20430;-44
2022/11/18 01:06:49;;;;;;;10.23;9.10;;;;;;;;;;5074080;28;20436;-44
2022/11/18 01:09:15;;;;;;;10.37;8.83;;;;;;;;;;5072566;28;20453;-43
2022/11/18 01:14:27;;;;;;;12.77;9.93;;;;;;;;;;5072819;28;20979;-44
2022/11/18 01:16:54;;;;;;;10.00;9.00;;;;;;;;;;5072210;28;20449;-44
2022/11/18 01:19:20;;;;;;;9.50;8.40;;;;;;;;;;5072755;28;20465;-45
2022/11/18 01:21:46;;;;;;;10.70;8.80;;;;;;;;;;5074169;28;20508;-45
2022/11/18 01:24:12;;;;;;;8.63;7.63;;;;;;;;;;5074217;28;20203;-45
2022/11/18 01:26:38;;;;;;;9.33;8.40;;;;;;;;;;5073573;28;20536;-44
2022/11/18 01:29:04;;;;;;;9.47;8.30;;;;;;;;;;5074215;28;20849;-45
2022/11/18 01:31:32;;;;;;;9.50;8.07;;;;;;;;;;5072639;28;20499;-44
2022/11/18 01:33:58;;;;;;;8.53;7.67;;;;;;;;;;5073653;28;20870;-45
2022/11/18 01:36:25;;;;;;;8.67;7.77;;;;;;;;;;5072312;28;20831;-44
2022/11/18 01:38:51;;;;;;;9.40;8.47;;;;;;;;;;5073525;28;20456;-44
2022/11/18 01:41:18;;;;;;;10.80;7.63;;;;;;;;;;5073713;28;20529;-45
2022/11/18 01:43:52;;;;;;;9.90;7.17;;;;;;;;;;5073218;28;20543;-45
2022/11/18 01:46:18;;;;;;;8.67;7.53;;;;;;;;;;5073480;28;20430;-45
2022/11/18 01:48:46;;;;;;;9.43;7.20;;;;;;;;;;5073053;28;20469;-45
2022/11/18 01:51:15;;;;;;;8.20;7.30;;;;;;;;;;5073309;28;20785;-44
2022/11/18 01:53:42;;;;;;;7.80;6.97;;;;;;;;;;5072990;28;20438;-45
2022/11/18 01:56:11;;;;;;;7.37;6.60;;;;;;;;;;5073470;28;20448;-45
2022/11/18 01:58:39;;;;;;;7.57;6.67;;;;;;;;;;5073124;28;20438;-45
2022/11/18 02:01:06;;;;;;;8.00;6.60;;;;;;;;;;5073125;28;20430;-45
2022/11/18 02:03:32;;;;;;;8.20;6.77;;;;;;;;;;5072234;28;20525;-45
2022/11/18 02:06:00;;;;;;;8.33;7.30;;;;;;;;;;5072585;28;20442;-45
2022/11/18 02:08:27;;;;;;;8.37;6.83;;;;;;;;;;5073083;28;20545;-45
2022/11/18 02:10:53;;;;;;;8.47;7.67;;;;;;;;;;5071867;28;20430;-45
2022/11/18 02:13:19;;;;;;;7.90;7.10;;;;;;;;;;5072878;28;20441;-45
2022/11/18 02:15:47;;;;;;;7.73;6.87;;;;;;;;;;5072517;28;20442;-45
2022/11/18 02:18:18;;;;;;;8.87;7.70;;;;;;;;;;5072782;28;20446;-45
2022/11/18 02:20:45;;;;;;;7.60;6.80;;;;;;;;;;5072739;28;20458;-45
2022/11/18 02:23:38;;;;;;;7.70;6.90;;;;;;;;;;5072447;28;21067;-45
2022/11/18 02:26:23;;;;;;;9.20;7.13;;;;;;;;;;5072853;28;20521;-45
2022/11/18 02:28:59;;;;;;;7.50;6.77;;;;;;;;;;5072522;28;20456;-45
2022/11/18 02:31:29;;;;;;;9.33;7.67;;;;;;;;;;5072540;28;20442;-45
2022/11/18 02:33:59;;;;;;;8.53;7.63;;;;;;;;;;5071614;28;20495;-45
2022/11/18 02:36:27;;;;;;;9.20;7.47;;;;;;;;;;5072259;28;20442;-45
2022/11/18 02:38:57;;;;;;;8.17;7.30;;;;;;;;;;5072216;28;20444;-44
2022/11/18 02:41:25;;;;;;;9.23;7.87;;;;;;;;;;5072510;28;20894;-44
2022/11/18 02:43:52;;;;;;;9.33;7.90;;;;;;;;;;5072269;28;20456;-44
2022/11/18 02:46:24;;;;;;;8.50;7.63;;;;;;;;;;5072117;28;20931;-45
2022/11/18 02:48:51;;;;;;;8.90;8.00;;;;;;;;;;5072103;28;20469;-45
2022/11/18 02:51:19;;;;;;;8.57;7.37;;;;;;;;;;5072227;28;20437;-45
2022/11/18 02:53:46;;;;;;;8.10;7.30;;;;;;;;;;5072159;28;20491;-45
2022/11/18 02:56:13;;;;;;;9.13;8.10;;;;;;;;;;5072190;28;20445;-45
2022/11/18 02:58:39;;;;;;;9.07;7.77;;;;;;;;;;5071978;28;21007;-45
2022/11/18 03:01:05;;;;;;;10.53;8.40;;;;;;;;;;5071852;28;20971;-45
2022/11/18 03:03:33;;;;;;;9.40;7.93;;;;;;;;;;5071098;28;21044;-44
2022/11/18 03:06:02;;;;;;;10.63;7.70;;;;;;;;;;5071164;28;20430;-44
2022/11/18 03:08:32;;;;;;;9.20;7.87;;;;;;;;;;5071328;28;20481;-45
2022/11/18 03:11:00;;;;;;;9.40;8.30;;;;;;;;;;5070235;28;20436;-46
2022/11/18 03:13:29;;;;;;;9.67;8.47;;;;;;;;;;5071350;28;20430;-45
2022/11/18 03:15:58;;;;;;;8.53;7.63;;;;;;;;;;5071661;28;20532;-44
2022/11/18 03:18:27;;;;;;;11.07;9.07;;;;;;;;;;5071617;28;20537;-45
2022/11/18 03:20:57;;;;;;;10.27;8.73;;;;;;;;;;5071598;28;20491;-45
2022/11/18 03:23:26;;;;;;;9.47;8.20;;;;;;;;;;5071713;28;20476;-45
2022/11/18 03:25:54;;;;;;;9.73;8.53;;;;;;;;;;5071500;28;20477;-45
2022/11/18 03:28:22;;;;;;;10.17;8.80;;;;;;;;;;5071659;28;20442;-45
2022/11/18 03:30:53;;;;;;;11.13;8.87;;;;;;;;;;5071440;28;20438;-45
2022/11/18 03:33:21;;;;;;;9.37;8.40;;;;;;;;;;5071644;28;20487;-45
2022/11/18 03:35:48;;;;;;;9.87;8.83;;;;;;;;;;5070316;28;20425;-45
2022/11/18 03:38:17;;;;;;;11.40;8.83;;;;;;;;;;5071495;28;20457;-45
2022/11/18 03:40:45;;;;;;;10.40;8.43;;;;;;;;;;5071700;28;20449;-45
2022/11/18 03:43:13;;;;;;;10.27;8.80;;;;;;;;;;5071341;28;20477;-45
2022/11/18 03:45:42;;;;;;;9.97;8.57;;;;;;;;;;5071411;28;20461;-45
2022/11/18 03:48:10;;;;;;;9.60;8.53;;;;;;;;;;5071297;28;20870;-45
2022/11/18 03:50:37;;;;;;;10.37;9.07;;;;;;;;;;5071425;28;20438;-45
2022/11/18 03:53:05;;;;;;;9.73;8.73;;;;;;;;;;5071219;28;20434;-45
2022/11/18 03:55:35;;;;;;;9.33;8.37;;;;;;;;;;5071373;28;20739;-45
2022/11/18 03:58:04;;;;;;;9.60;7.80;;;;;;;;;;5071391;28;20817;-45
2022/11/18 04:00:33;;;;;;;10.63;8.87;;;;;;;;;;5071188;28;20436;-45
2022/11/18 04:02:59;;;;;;;9.47;8.23;;;;;;;;;;5071164;28;20469;-45
2022/11/18 04:05:26;;;;;;;9.67;8.30;;;;;;;;;;5071431;28;20941;-45
2022/11/18 04:07:55;;;;;;;10.63;8.57;;;;;;;;;;5071089;28;20430;-45
2022/11/18 04:10:22;;;;;;;9.30;8.37;;;;;;;;;;5071174;28;20434;-44
2022/11/18 04:12:53;;;;;;;10.33;9.10;;;;;;;;;;5071029;28;20483;-45
2022/11/18 04:15:19;;;;;;;10.93;9.10;;;;;;;;;;5071189;28;20975;-45
2022/11/18 04:17:45;;;;;;;10.83;9.03;;;;;;;;;;5073149;28;20676;-45
2022/11/18 04:20:14;;;;;;;12.50;10.30;;;;;;;;;;5074001;28;20429;-45
2022/11/18 04:22:40;;;;;;;12.53;9.50;;;;;;;;;;5075166;28;21066;-45
2022/11/18 04:25:06;;;;;;;12.17;10.07;;;;;;;;;;5074976;28;20528;-45
2022/11/18 04:27:32;;;;;;;11.27;9.90;;;;;;;;;;5074909;28;20200;-44
2022/11/18 04:30:00;;;;;;;12.77;9.90;;;;;;;;;;5073551;28;20441;-45
2022/11/18 04:32:26;;;;;;;13.00;10.30;;;;;;;;;;5074819;28;20737;-45
2022/11/18 04:34:52;;;;;;;11.87;10.50;;;;;;;;;;5074131;28;20525;-45
2022/11/18 04:37:18;;;;;;;14.77;10.87;;;;;;;;;;5074563;28;20205;-44
2022/11/18 04:39:44;;;;;;;12.80;11.40;;;;;;;;;;5074726;28;20243;-44
2022/11/18 04:42:10;;;;;;;13.40;10.80;;;;;;;;;;5074509;28;21270;-45
2022/11/18 04:44:36;;;;;;;13.20;10.93;;;;;;;;;;5074528;28;20928;-45
2022/11/18 04:47:05;;;;;;;13.33;10.63;;;;;;;;;;5074545;28;20450;-44
2022/11/18 04:49:31;;;;;;;13.20;10.60;;;;;;;;;;5074328;28;20285;-45
2022/11/18 04:51:57;;;;;;;11.67;10.13;;;;;;;;;;5073517;28;20456;-45
2022/11/18 04:54:24;;;;;;;14.27;10.50;;;;;;;;;;5073460;28;20461;-44
2022/11/18 04:56:50;;;;;;;13.03;10.00;;;;;;;;;;5074366;28;20458;-45
2022/11/18 04:59:16;;;;;;;15.30;10.53;;;;;;;;;;5074367;28;20479;-45
2022/11/18 05:01:43;;;;;;;11.93;10.47;;;;;;;;;;5074123;28;20457;-44
2022/11/18 05:04:13;;;;;;;13.83;10.80;;;;;;;;;;5074191;28;20452;-44
2022/11/18 05:06:39;;;;;;;11.93;10.30;;;;;;;;;;5074419;28;20430;-45
2022/11/18 05:09:06;;;;;;;13.20;10.03;;;;;;;;;;5073929;28;20449;-45
2022/11/18 05:14:16;;;;;;;11.17;9.93;;;;;;;;;;5074212;28;20425;-44
2022/11/18 05:16:43;;;;;;;13.13;10.27;;;;;;;;;;5073923;28;20452;-44
2022/11/18 05:19:09;;;;;;;11.87;9.87;;;;;;;;;;5073930;28;20516;-45
2022/11/18 05:21:37;;;;;;;11.90;9.87;;;;;;;;;;5073355;28;20908;-45
2022/11/18 05:24:03;;;;;;;12.67;10.57;;;;;;;;;;5073111;28;21110;-45
2022/11/18 05:26:29;;;;;;;12.67;10.37;;;;;;;;;;5073551;28;20430;-45
2022/11/18 05:28:55;;;;;;;13.23;9.90;;;;;;;;;;5073032;28;20446;-45
2022/11/18 05:31:21;;;;;;;13.30;10.47;;;;;;;;;;5073963;28;20433;-45
2022/11/18 05:33:48;;;;;;;15.13;10.83;;;;;;;;;;5073685;28;20457;-45
2022/11/18 05:36:14;;;;;;;11.33;9.17;;;;;;;;;;5073744;28;20430;-45
2022/11/18 05:38:42;;;;;;;15.70;10.47;;;;;;;;;;5073077;28;20442;-44
2022/11/18 05:41:08;;;;;;;12.60;10.60;;;;;;;;;;5073747;28;20426;-44
2022/11/18 05:43:35;;;;;;;11.93;9.67;;;;;;;;;;5073549;28;20481;-44
2022/11/18 05:46:01;;;;;;;14.17;9.83;;;;;;;;;;5073392;28;20426;-44
2022/11/18 05:48:27;;;;;;;14.47;10.20;;;;;;;;;;5073241;28;20982;-44
2022/11/18 05:50:54;;;;;;;13.87;11.10;;;;;;;;;;5073340;28;20429;-44
2022/11/18 05:53:20;;;;;;;12.83;10.17;;;;;;;;;;5073226;28;20521;-44
2022/11/18 05:55:50;;;;;;;14.53;11.83;;;;;;;;;;5073197;28;20475;-45
2022/11/18 05:58:16;;;;;;;14.53;11.50;;;;;;;;;;5073266;28;20532;-45
2022/11/18 06:00:43;;;;;;;13.83;11.07;;;;;;;;;;5073145;28;20971;-45
2022/11/18 06:03:12;;;;;;;12.67;10.47;;;;;;;;;;5073031;28;20484;-45
2022/11/18 06:05:39;;;;;;;14.07;11.57;;;;;;;;;;5073307;28;20434;-44
2022/11/18 06:08:05;;;;;;;14.67;10.63;;;;;;;;;;5072821;28;20836;-45
2022/11/18 06:10:35;;;;;;;13.77;11.73;;;;;;;;;;5072579;28;20478;-44
2022/11/18 06:13:05;;;;;;;14.07;11.33;;;;;;;;;;5072611;28;20445;-45
2022/11/18 06:15:32;;;;;;;13.97;10.90;;;;;;;;;;5072846;28;20446;-44
2022/11/18 06:18:00;;;;;;;14.97;12.33;;;;;;;;;;5072664;28;20779;-44
2022/11/18 06:20:26;;;;;;;16.07;12.43;;;;;;;;;;5072499;28;20724;-45
2022/11/18 06:22:53;;;;;;;17.57;12.63;;;;;;;;;;5072451;28;20477;-45
2022/11/18 06:25:20;;;;;;;17.50;13.03;;;;;;;;;;5071845;28;20948;-43
2022/11/18 06:27:46;;;;;;;16.70;12.43;;;;;;;;;;5072578;28;21227;-43
2022/11/18 06:30:14;;;;;;;16.37;12.60;;;;;;;;;;5072068;28;20446;-43
2022/11/18 06:32:46;;;;;;;15.83;13.13;;;;;;;;;;5072059;28;20438;-43
2022/11/18 06:35:13;;;;;;;16.87;12.80;;;;;;;;;;5071874;28;20440;-43
2022/11/18 06:37:39;;;;;;;17.47;13.03;;;;;;;;;;5072597;28;20440;-43
2022/11/18 06:40:05;;;;;;;17.40;13.50;;;;;;;;;;5071152;28;20422;-43
2022/11/18 06:45:17;;;;;;;17.80;13.83;;;;;;;;;;5072183;28;20437;-43
2022/11/18 06:47:43;;;;;;;17.33;13.83;;;;;;;;;;5072194;28;20541;-44
2022/11/18 06:50:10;;;;;;;16.17;13.47;;;;;;;;;;5071914;28;20560;-43
2022/11/18 06:52:36;;;;;;;17.43;13.33;;;;;;;;;;5072192;28;20441;-44
2022/11/18 06:55:05;;;;;;;18.37;13.77;;;;;;;;;;5070771;28;20837;-44
2022/11/18 06:57:31;;;;;;;14.17;11.63;;;;;;;;;;5072124;28;20460;-44
2022/11/18 06:59:57;;;;;;;18.73;14.27;;;;;;;;;;5071892;28;20442;-45
2022/11/18 07:02:24;;;;;;;23.30;18.17;;;;;;;;;;5071994;28;20630;-45
2022/11/18 07:04:50;;;;;;;20.70;16.03;;;;;;;;;;5071824;28;21028;-44
2022/11/18 07:07:16;;;;;;;17.67;14.90;;;;;;;;;;5071859;28;20624;-44
2022/11/18 07:09:42;;;;;;;17.17;14.70;;;;;;;;;;5071408;28;20255;-44
2022/11/18 07:12:08;;;;;;;20.93;16.20;;;;;;;;;;5071285;28;20816;-44
2022/11/18 07:14:34;;;;;;;17.27;14.87;;;;;;;;;;5070933;28;20434;-44
2022/11/18 07:17:00;;;;;;;17.70;14.37;;;;;;;;;;5071700;28;20511;-45
2022/11/18 07:19:28;;;;;;;20.10;14.00;;;;;;;;;;5071279;28;20430;-45
2022/11/18 07:21:54;;;;;;;21.13;16.17;;;;;;;;;;5070841;28;20760;-44
2022/11/18 07:24:20;;;;;;;19.60;14.70;;;;;;;;;;5070780;28;20938;-44
2022/11/18 07:26:46;;;;;;;18.53;14.40;;;;;;;;;;5071276;28;20469;-44
2022/11/18 07:29:12;;;;;;;19.37;14.23;;;;;;;;;;5071355;28;20430;-44
2022/11/18 07:31:38;;;;;;;20.37;14.73;;;;;;;;;;5071174;28;21046;-44
2022/11/18 07:34:04;;;;;;;17.33;15.07;;;;;;;;;;5071303;28;20924;-45
2022/11/18 07:36:32;;;;;;;20.87;15.57;;;;;;;;;;5071158;28;20445;-45
2022/11/18 07:38:58;;;;;;;21.27;16.00;;;;;;;;;;5070590;28;20452;-45
2022/11/18 07:41:25;;;;;;;20.33;15.13;;;;;;;;;;5071412;28;20491;-44
2022/11/18 07:43:52;;;;;;;17.37;14.20;;;;;;;;;;5071218;28;20485;-45
2022/11/18 07:46:19;;;;;;;18.93;14.17;;;;;;;;;;5071439;28;20438;-45
2022/11/18 07:48:46;;;;;;;18.70;13.90;;;;;;;;;;5070960;28;20900;-45
2022/11/18 07:51:13;;;;;;;17.47;14.60;;;;;;;;;;5070626;28;20533;-44
2022/11/18 07:53:40;;;;;;;18.67;14.10;;;;;;;;;;5070085;28;20430;-45
2022/11/18 07:56:07;;;;;;;16.03;13.83;;;;;;;;;;5070377;28;20465;-45
2022/11/18 07:58:33;;;;;;;20.23;14.60;;;;;;;;;;5071142;28;20437;-45
2022/11/18 08:01:05;;;;;;;19.90;15.20;;;;;;;;;;5070910;28;20446;-44
2022/11/18 08:03:31;;;;;;;16.83;14.00;;;;;;;;;;5071151;28;20535;-44
2022/11/18 08:05:58;;;;;;;20.23;14.77;;;;;;;;;;5071117;28;20807;-45
2022/11/18 08:08:24;;;;;;;20.20;14.70;;;;;;;;;;5071186;28;20242;-45
2022/11/18 08:10:54;;;;;;;20.87;15.50;;;;;;;;;;5070451;28;20434;-44
2022/11/18 08:13:20;;;;;;;20.37;14.87;;;;;;;;;;5070933;28;20662;-45
2022/11/18 08:15:46;;;;;;;18.93;15.60;;;;;;;;;;5071019;28;20494;-45
2022/11/18 08:18:12;;;;;;;19.97;15.43;;;;;;;;;;5070812;28;20200;-45
2022/11/18 08:20:38;;;;;;;18.63;14.30;;;;;;;;;;5070862;28;20195;-45
2022/11/18 08:23:04;;;;;;;18.23;14.90;;;;;;;;;;5070723;28;20211;-45
2022/11/18 08:25:30;;;;;;;19.47;14.83;;;;;;;;;;5070769;28;20499;-44
2022/11/18 08:27:58;;;;;;;18.43;14.70;;;;;;;;;;5070862;28;20442;-45
2022/11/18 08:30:24;;;;;;;20.23;14.80;;;;;;;;;;5070900;28;20448;-45
2022/11/18 08:32:50;;;;;;;20.67;15.17;;;;;;;;;;5070786;28;20684;-45
2022/11/18 08:35:16;;;;;;;16.97;14.33;;;;;;;;;;5070627;28;20483;-46
2022/11/18 08:37:42;;;;;;;18.10;14.57;;;;;;;;;;5070728;28;20462;-45
2022/11/18 08:40:08;;;;;;;20.00;15.13;;;;;;;;;;5070016;28;20438;-44
2022/11/18 08:42:36;;;;;;;18.30;15.40;;;;;;;;;;5069254;28;20516;-45
2022/11/18 08:45:07;;;;;;;19.83;15.73;;;;;;;;;;5070356;28;20441;-44
2022/11/18 08:47:33;;;;;;;18.73;16.13;;;;;;;;;;5070772;28;20593;-44
2022/11/18 08:49:59;;;;;;;21.53;16.17;;;;;;;;;;5070291;28;20523;-45
2022/11/18 08:52:25;;;;;;;19.67;15.43;;;;;;;;;;5070635;28;20434;-45
2022/11/18 08:54:51;;;;;;;22.63;16.43;;;;;;;;;;5070784;28;20712;-45
2022/11/18 08:57:17;;;;;;;19.27;16.20;;;;;;;;;;5070783;28;20442;-45
2022/11/18 08:59:43;;;;;;;21.20;16.17;;;;;;;;;;5070642;28;20418;-46
2022/11/18 09:02:14;;;;;;;23.60;16.93;;;;;;;;;;5070521;28;20199;-45
2022/11/18 09:04:40;;;;;;;22.40;16.03;;;;;;;;;;5072491;28;20208;-45
2022/11/18 09:07:06;;;;;;;20.73;16.23;;;;;;;;;;5074071;28;20486;-46
2022/11/18 09:09:32;;;;;;;22.60;17.83;;;;;;;;;;5074854;28;20464;-46
2022/11/18 09:11:58;;;;;;;23.13;17.97;;;;;;;;;;5074593;28;20538;-44
2022/11/18 09:14:24;;;;;;;22.07;18.53;;;;;;;;;;5074102;28;20469;-44
2022/11/18 09:16:50;;;;;;;20.23;16.17;;;;;;;;;;5073737;28;20464;-44
2022/11/18 09:19:18;;;;;;;28.03;19.87;;;;;;;;;;5073561;28;20203;-45
2022/11/18 09:21:44;;;;;;;23.20;17.23;;;;;;;;;;5072921;28;20455;-43
2022/11/18 09:24:10;;;;;;;23.93;17.40;;;;;;;;;;5074095;28;20470;-44
2022/11/18 09:26:36;;;;;;;23.43;17.60;;;;;;;;;;5073516;28;20436;-44
2022/11/18 09:29:02;;;;;;;23.37;18.50;;;;;;;;;;5073254;28;20474;-43
2022/11/18 09:31:28;;;;;;;21.43;17.20;;;;;;;;;;5072425;28;20441;-43
2022/11/18 09:33:54;;;;;;;22.97;17.70;;;;;;;;;;5073059;28;20438;-43
2022/11/18 09:36:22;;;;;;;20.83;16.93;;;;;;;;;;5073216;28;20912;-46
2022/11/18 09:38:48;;;;;;;23.23;17.50;;;;;;;;;;5073101;28;20210;-44
2022/11/18 09:41:22;;;;;;;22.90;17.97;;;;;;;;;;5070760;28;20513;-45
2022/11/18 09:43:54;;;;;;;21.33;16.73;;;;;;;;;;5073541;28;20483;-45
2022/11/18 09:46:24;;;;;;;22.50;17.97;;;;;;;;;;5073465;28;20434;-45
2022/11/18 09:51:38;;;;;;;22.43;17.33;;;;;;;;;;5073912;28;20460;-44
2022/11/18 09:54:04;;;;;;;19.70;16.30;;;;;;;;;;5071747;28;20432;-45
2022/11/18 09:56:30;;;;;;;18.03;15.63;;;;;;;;;;5073325;28;20473;-44
2022/11/18 09:58:57;;;;;;;18.63;15.77;;;;;;;;;;5073269;28;20442;-45
2022/11/18 10:01:23;;;;;;;17.30;14.63;;;;;;;;;;5073373;28;20484;-45
2022/11/18 10:03:49;;;;;;;18.30;14.33;;;;;;;;;;5073281;28;20469;-44
2022/11/18 10:06:18;;;;;;;17.27;14.10;;;;;;;;;;5073020;28;20999;-44
2022/11/18 10:08:51;;;;;;;20.00;14.73;;;;;;;;;;5072755;28;20858;-45
2022/11/18 10:11:18;;;;;;;18.57;14.23;;;;;;;;;;5072991;28;20861;-44
2022/11/18 10:13:48;;;;;;;18.53;13.90;;;;;;;;;;5072109;28;20422;-44
2022/11/18 10:16:20;;;;;;;17.47;13.53;;;;;;;;;;5072098;28;20861;-44
2022/11/18 10:18:48;;;;;;;18.00;14.27;;;;;;;;;;5072477;28;20473;-45
2022/11/18 10:21:18;;;;;;;16.67;13.83;;;;;;;;;;5072212;28;20445;-45
2022/11/18 10:23:52;;;;;;;16.87;13.20;;;;;;;;;;5072848;28;20473;-45
2022/11/18 10:26:30;;;;;;;16.17;13.50;;;;;;;;;;5072709;28;20525;-45
2022/11/18 10:28:57;;;;;;;17.80;13.73;;;;;;;;;;5072370;28;20532;-44
2022/11/18 10:31:23;;;;;;;17.07;12.60;;;;;;;;;;5072865;28;20457;-44
2022/11/18 10:33:57;;;;;;;17.13;13.00;;;;;;;;;;5070411;28;20434;-44
2022/11/18 10:36:27;;;;;;;16.10;12.70;;;;;;;;;;5072577;28;20536;-44
2022/11/18 10:39:08;;;;;;;16.20;13.43;;;;;;;;;;5072323;28;20438;-46
2022/11/18 10:41:39;;;;;;;14.50;13.00;;;;;;;;;;5072421;28;20433;-44
2022/11/18 10:44:05;;;;;;;14.33;12.83;;;;;;;;;;5071227;28;20577;-44
2022/11/18 10:46:32;;;;;;;15.27;12.77;;;;;;;;;;5072373;28;20434;-45
2022/11/18 10:49:13;;;;;;;15.13;12.70;;;;;;;;;;5071697;28;20478;-44
2022/11/18 10:51:40;;;;;;;15.17;13.20;;;;;;;;;;5071810;28;20437;-44
2022/11/18 10:54:08;;;;;;;16.43;13.27;;;;;;;;;;5071853;28;20947;-44
2022/11/18 10:56:44;;;;;;;17.13;13.57;;;;;;;;;;5071847;28;20774;-45
2022/11/18 10:59:17;;;;;;;16.43;13.93;;;;;;;;;;5071176;28;20457;-45
2022/11/18 11:01:43;;;;;;;14.60;12.60;;;;;;;;;;5071248;28;20445;-45
2022/11/18 11:04:16;;;;;;;17.20;13.83;;;;;;;;;;5071749;28;20877;-44
2022/11/18 11:06:42;;;;;;;16.77;14.60;;;;;;;;;;5071927;28;20822;-44
2022/11/18 11:09:22;;;;;;;15.67;13.67;;;;;;;;;;5071275;28;20454;-44
2022/11/18 11:11:55;;;;;;;17.53;14.27;;;;;;;;;;5072067;28;20440;-45
2022/11/18 11:14:23;;;;;;;20.33;16.23;;;;;;;;;;5070835;28;20491;-43
2022/11/18 11:16:53;;;;;;;20.73;15.60;;;;;;;;;;5071852;28;20436;-46
2022/11/18 11:19:21;;;;;;;22.53;16.27;;;;;;;;;;5071327;28;20436;-44
2022/11/18 11:21:47;;;;;;;18.03;14.80;;;;;;;;;;5071405;28;20803;-43
2022/11/18 11:24:14;;;;;;;16.80;14.50;;;;;;;;;;5071242;28;20886;-44
2022/11/18 11:26:45;;;;;;;20.43;15.57;;;;;;;;;;5071056;28;21019;-44
2022/11/18 11:29:17;;;;;;;17.33;14.07;;;;;;;;;;5071720;28;20474;-44
2022/11/18 11:31:48;;;;;;;19.37;15.47;;;;;;;;;;5070787;28;20946;-45
2022/11/18 11:34:18;;;;;;;18.57;15.47;;;;;;;;;;5070862;28;20485;-45
2022/11/18 11:36:50;;;;;;;19.50;15.60;;;;;;;;;;5070568;28;20460;-44
2022/11/18 11:39:35;;;;;;;16.70;14.77;;;;;;;;;;5071353;28;20442;-44
2022/11/18 11:42:08;;;;;;;19.87;15.57;;;;;;;;;;5070348;28;20432;-43
2022/11/18 11:44:39;;;;;;;17.67;14.90;;;;;;;;;;5071075;28;20565;-44
2022/11/18 11:50:01;;;;;;;16.10;14.17;;;;;;;;;;5069905;28;20608;-44
2022/11/18 11:52:32;;;;;;;15.73;13.73;;;;;;;;;;5070301;28;20441;-44
2022/11/18 11:55:04;;;;;;;18.77;13.77;;;;;;;;;;5071140;28;20438;-44
2022/11/18 11:57:38;;;;;;;14.50;12.97;;;;;;;;;;5071534;28;20442;-43
2022/11/18 12:00:06;;;;;;;17.20;12.97;;;;;;;;;;5071263;28;20469;-43
2022/11/18 12:02:43;;;;;;;13.23;11.77;;;;;;;;;;5071199;28;20832;-43
2022/11/18 12:05:15;;;;;;;14.57;11.83;;;;;;;;;;5071418;28;20919;-43
2022/11/18 12:07:43;;;;;;;14.20;12.30;;;;;;;;;;5071431;28;20521;-43
2022/11/18 12:10:19;;;;;;;13.47;11.17;;;;;;;;;;5071029;28;20480;-43
2022/11/18 12:12:49;;;;;;;13.87;11.67;;;;;;;;;;5070614;28;20500;-44
2022/11/18 12:15:33;;;;;;;13.77;11.43;;;;;;;;;;5070968;28;20465;-43
2022/11/18 12:18:05;;;;;;;14.13;11.43;;;;;;;;;;5071033;28;20524;-44
2022/11/18 12:20:35;;;;;;;12.60;11.30;;;;;;;;;;5070650;28;20426;-44
2022/11/18 12:23:12;;;;;;;14.33;11.87;;;;;;;;;;5071122;28;20480;-44
2022/11/18 12:25:57;;;;;;;34.20;29.20;;;;;;;;;;5070923;28;20421;-44
2022/11/18 12:28:26;;;;;;;16.80;12.67;;;;;;;;;;5071147;28;20883;-44
2022/11/18 12:31:07;;;;;;;11.23;10.10;;;;;;;;;;5070956;28;20513;-44
2022/11/18 12:33:40;;;;;;;13.23;11.50;;;;;;;;;;5070931;28;20430;-44
2022/11/18 12:36:07;;;;;;;24.33;21.10;;;;;;;;;;5070771;28;20533;-44
2022/11/18 12:38:33;;;;;;;69.33;49.83;;;;;;;;;;5071331;28;20429;-44
2022/11/18 12:43:45;;;;;;;17.13;14.67;;;;;;;;;;5074649;28;20780;-44
2022/11/18 12:44:03;;;;;;;15.47;13.83;;;;;;;;;;5072506;28;21038;-44
2022/11/18 12:46:44;;;;;;;12.63;10.70;;;;;;;;;;5074289;28;20432;-43
2022/11/18 12:49:28;;;;;;;12.40;11.17;;;;;;;;;;5072056;28;20489;-44
2022/11/18 12:51:56;;;;;;;12.33;11.10;;;;;;;;;;5074638;28;20422;-44
2022/11/18 12:54:27;;;;;;;12.17;10.87;;;;;;;;;;5074504;28;20449;-44
2022/11/18 12:56:54;;;;;;;13.30;11.93;;;;;;;;;;5074461;28;20524;-44
2022/11/18 12:59:31;;;;;;;13.10;11.47;;;;;;;;;;5074315;28;20433;-43
2022/11/18 13:02:16;;;;;;;11.50;10.33;;;;;;;;;;5074465;28;20506;-44
2022/11/18 13:04:42;;;;;;;120.67;62.93;;;;;;;;;;5074509;28;20492;-44
2022/11/18 13:09:56;;;;;;;22.27;18.17;;;;;;;;;;5074268;28;20261;-44
2022/11/18 13:12:24;;;;;;;31.43;22.57;;;;;;;;;;5074388;28;20487;-44
2022/11/18 13:17:54;;;;;;;10.97;9.93;;;;;;;;;;5074272;28;20413;-43
2022/11/18 13:20:26;;;;;;;10.90;9.80;;;;;;;;;;5074171;28;20575;-44
2022/11/18 13:25:41;;;;;;;42.90;28.20;;;;;;;;;;5074162;28;20436;-43
2022/11/18 13:28:11;;;;;;;68.53;42.33;;;;;;;;;;5073981;28;20855;-44
2022/11/18 13:30:43;;;;;;;11.23;9.97;;;;;;;;;;5073892;28;20839;-44
2022/11/18 13:33:10;;;;;;;25.60;19.27;;;;;;;;;;5073843;28;20835;-43
2022/11/18 13:35:39;;;;;;;14.57;12.17;;;;;;;;;;5073984;28;20430;-43
2022/11/18 13:38:18;;;;;;;12.07;10.70;;;;;;;;;;5073764;28;20438;-43
2022/11/18 13:41:03;;;;;;;15.80;13.60;;;;;;;;;;5073810;28;20442;-44
2022/11/18 13:43:30;;;;;;;15.53;12.97;;;;;;;;;;5073627;28;20592;-43
2022/11/18 13:45:56;;;;;;;15.40;13.73;;;;;;;;;;5073635;28;20512;-43
2022/11/18 13:48:22;;;;;;;18.13;15.10;;;;;;;;;;5073631;28;20481;-43
2022/11/18 13:50:51;;;;;;;16.73;14.90;;;;;;;;;;5073095;28;20429;-43
2022/11/18 13:53:23;;;;;;;15.90;14.07;;;;;;;;;;5073388;28;21099;-43
2022/11/18 13:55:51;;;;;;;19.07;17.07;;;;;;;;;;5073475;28;20434;-45
2022/11/18 13:58:30;;;;;;;14.33;12.83;;;;;;;;;;5073593;28;20462;-44
2022/11/18 14:00:59;;;;;;;14.60;13.10;;;;;;;;;;5072828;28;20848;-44
2022/11/18 14:03:26;;;;;;;18.23;16.33;;;;;;;;;;5071288;28;20482;-44
2022/11/18 14:05:52;;;;;;;13.23;11.83;;;;;;;;;;5073923;28;20442;-43
2022/11/18 14:08:24;;;;;;;22.63;20.10;;;;;;;;;;5073487;28;20457;-43
2022/11/18 14:10:50;;;;;;;14.27;12.83;;;;;;;;;;5073763;28;20858;-43
2022/11/18 14:13:18;;;;;;;14.33;12.83;;;;;;;;;;5073440;28;21042;-44
2022/11/18 14:15:44;;;;;;;14.70;12.03;;;;;;;;;;5073527;28;20430;-43
2022/11/18 14:18:16;;;;;;;16.67;14.20;;;;;;;;;;5073227;28;20434;-43
2022/11/18 14:20:49;;;;;;;33.57;26.07;;;;;;;;;;5073591;28;20474;-43
2022/11/18 14:23:15;;;;;;;18.23;16.27;;;;;;;;;;5073157;28;20465;-43
2022/11/18 14:25:44;;;;;;;16.33;14.43;;;;;;;;;;5073398;28;20520;-43
2022/11/18 14:28:11;;;;;;;13.87;12.43;;;;;;;;;;5073065;28;20659;-44
2022/11/18 14:30:38;;;;;;;17.50;15.50;;;;;;;;;;5073179;28;20433;-43
2022/11/18 14:33:21;;;;;;;14.77;13.17;;;;;;;;;;5070936;28;20487;-43
2022/11/18 14:35:51;;;;;;;40.17;30.27;;;;;;;;;;5071429;28;20441;-43
2022/11/18 14:38:18;;;;;;;20.20;17.23;;;;;;;;;;5073159;28;20895;-43
2022/11/18 14:40:46;;;;;;;83.20;54.83;;;;;;;;;;5071102;28;20434;-44
2022/11/18 14:43:12;;;;;;;65.17;46.43;;;;;;;;;;5072839;28;20572;-44
2022/11/18 14:45:39;;;;;;;19.70;17.07;;;;;;;;;;5071268;28;20810;-44
2022/11/18 14:48:06;;;;;;;17.10;15.30;;;;;;;;;;5072758;28;20488;-44
2022/11/18 14:50:32;;;;;;;17.77;15.27;;;;;;;;;;5072245;28;20450;-44
2022/11/18 14:52:58;;;;;;;20.03;16.43;;;;;;;;;;5072302;28;20442;-43
2022/11/18 14:55:24;;;;;;;32.70;26.63;;;;;;;;;;5072371;28;20491;-43
2022/11/18 14:57:52;;;;;;;19.20;16.73;;;;;;;;;;5072907;28;20485;-44